Time;durP1;ratioP1;P1;durP2;ratioP2;P2;SDS_P1;SDS_P2;PMS_P1;PMS_P2;Temp;Humidity;BMP_temperature;BMP_pressure;BME280_temperature;BME280_humidity;BME280_pressure;Samples;Min_cycle;Max_cycle;Signal;HPM_P1;HPM_P2
2023/10/13 00:01:04;;;;;;;14.48;4.82;;;;;;;;;;5038434;28;20017;-36
2023/10/13 00:03:31;;;;;;;15.27;5.00;;;;;;;;;;5035143;28;20033;-36
2023/10/13 00:05:59;;;;;;;11.00;3.83;;;;;;;;;;5053813;28;20032;-36
2023/10/13 00:08:24;;;;;;;10.30;4.13;;;;;;;;;;5049405;28;20033;-36
2023/10/13 00:10:49;;;;;;;9.18;4.15;;;;;;;;;;5055589;28;20028;-36
2023/10/13 00:13:19;;;;;;;13.10;5.40;;;;;;;;;;5053512;28;20029;-36
2023/10/13 00:15:59;;;;;;;11.75;4.38;;;;;;;;;;5052665;28;20279;-36
2023/10/13 00:18:27;;;;;;;14.65;4.75;;;;;;;;;;5050922;28;20049;-36
2023/10/13 00:20:56;;;;;;;11.77;4.13;;;;;;;;;;5044734;28;20794;-36
2023/10/13 00:23:21;;;;;;;13.80;4.13;;;;;;;;;;5052836;28;20119;-36
2023/10/13 00:25:50;;;;;;;12.38;3.60;;;;;;;;;;5055975;28;20024;-36
2023/10/13 00:28:23;;;;;;;15.75;4.30;;;;;;;;;;5054643;28;20040;-36
2023/10/13 00:30:51;;;;;;;15.10;4.07;;;;;;;;;;5051142;28;21818;-36
2023/10/13 00:33:19;;;;;;;13.55;3.95;;;;;;;;;;5050117;28;20025;-38
2023/10/13 00:35:47;;;;;;;7.95;4.40;;;;;;;;;;5050017;28;20032;-36
2023/10/13 00:38:16;;;;;;;9.30;3.67;;;;;;;;;;5053139;28;20407;-36
2023/10/13 00:40:43;;;;;;;10.48;3.88;;;;;;;;;;5058715;28;20422;-37
2023/10/13 00:45:48;;;;;;;12.52;4.72;;;;;;;;;;5049834;28;20025;-36
2023/10/13 00:48:14;;;;;;;11.18;4.18;;;;;;;;;;5051694;28;20099;-36
2023/10/13 00:50:40;;;;;;;10.48;3.58;;;;;;;;;;5048203;28;20024;-36
2023/10/13 00:53:07;;;;;;;12.05;4.18;;;;;;;;;;5048396;28;20031;-36
2023/10/13 00:55:33;;;;;;;13.80;4.05;;;;;;;;;;5050478;28;20499;-36
2023/10/13 00:58:03;;;;;;;9.23;4.22;;;;;;;;;;5048819;28;20043;-36
2023/10/13 01:00:28;;;;;;;9.25;3.90;;;;;;;;;;5054094;28;20510;-36
2023/10/13 01:03:05;;;;;;;11.05;3.78;;;;;;;;;;5047827;28;20033;-38
2023/10/13 01:05:31;;;;;;;11.60;4.00;;;;;;;;;;5046113;28;20256;-36
2023/10/13 01:08:01;;;;;;;13.77;3.97;;;;;;;;;;5052270;28;20422;-36
2023/10/13 01:10:27;;;;;;;9.23;3.03;;;;;;;;;;5053675;28;21427;-38
2023/10/13 01:12:52;;;;;;;11.05;3.70;;;;;;;;;;5056072;28;20025;-36
2023/10/13 01:15:20;;;;;;;10.95;3.30;;;;;;;;;;5056364;28;20028;-36
2023/10/13 01:17:46;;;;;;;13.13;3.00;;;;;;;;;;5054745;28;20043;-36
2023/10/13 01:20:19;;;;;;;10.90;3.00;;;;;;;;;;5053948;28;20017;-36
2023/10/13 01:22:44;;;;;;;11.60;4.10;;;;;;;;;;5055343;28;20120;-36
2023/10/13 01:25:13;;;;;;;9.65;2.60;;;;;;;;;;5055799;28;20091;-36
2023/10/13 01:27:40;;;;;;;7.65;2.78;;;;;;;;;;5058546;28;20505;-35
2023/10/13 01:30:09;;;;;;;8.70;2.75;;;;;;;;;;5058381;28;20029;-36
2023/10/13 01:32:40;;;;;;;12.38;2.75;;;;;;;;;;5049708;28;20024;-35
2023/10/13 01:35:06;;;;;;;10.32;2.80;;;;;;;;;;5056340;28;20025;-36
2023/10/13 01:37:32;;;;;;;11.07;2.92;;;;;;;;;;5054157;28;20048;-36
2023/10/13 01:39:58;;;;;;;12.50;3.20;;;;;;;;;;5053950;28;20029;-36
2023/10/13 01:42:24;;;;;;;14.73;3.67;;;;;;;;;;5056999;28;20036;-36
2023/10/13 01:44:49;;;;;;;9.50;2.40;;;;;;;;;;5057554;28;20696;-35
2023/10/13 01:47:16;;;;;;;13.03;3.90;;;;;;;;;;5057445;28;20465;-36
2023/10/13 01:49:42;;;;;;;10.77;4.60;;;;;;;;;;5059045;28;20346;-36
2023/10/13 01:52:11;;;;;;;14.43;3.65;;;;;;;;;;5051182;28;20483;-36
2023/10/13 01:54:40;;;;;;;4.40;1.70;;;;;;;;;;5039927;28;20095;-36
2023/10/13 01:57:06;;;;;;;11.82;3.38;;;;;;;;;;5056835;28;20031;-36
2023/10/13 01:59:31;;;;;;;12.02;3.85;;;;;;;;;;5052739;28;20037;-36
2023/10/13 02:02:00;;;;;;;16.73;4.55;;;;;;;;;;5055941;28;20649;-36
2023/10/13 02:04:26;;;;;;;14.70;3.65;;;;;;;;;;5053424;28;20657;-36
2023/10/13 02:06:52;;;;;;;11.85;3.30;;;;;;;;;;5056514;28;20141;-36
2023/10/13 02:09:25;;;;;;;9.98;3.45;;;;;;;;;;5053791;28;20061;-37
2023/10/13 02:11:54;;;;;;;10.38;4.20;;;;;;;;;;5058160;28;20131;-37
2023/10/13 02:14:21;;;;;;;8.05;3.80;;;;;;;;;;5053443;28;20033;-36
2023/10/13 02:16:47;;;;;;;16.92;4.20;;;;;;;;;;5055064;28;20074;-36
2023/10/13 02:19:15;;;;;;;8.55;4.00;;;;;;;;;;5053325;28;20033;-36
2023/10/13 02:21:43;;;;;;;23.58;6.95;;;;;;;;;;5057301;28;20106;-36
2023/10/13 02:24:18;;;;;;;11.45;3.90;;;;;;;;;;5052337;28;20039;-37
2023/10/13 02:26:46;;;;;;;11.48;4.30;;;;;;;;;;5056972;28;20028;-37
2023/10/13 02:29:17;;;;;;;13.60;4.88;;;;;;;;;;5053744;28;20671;-37
2023/10/13 02:31:46;;;;;;;13.43;4.38;;;;;;;;;;5059021;28;20088;-37
2023/10/13 02:34:18;;;;;;;11.77;3.90;;;;;;;;;;5056630;28;20056;-37
2023/10/13 02:36:49;;;;;;;7.47;3.22;;;;;;;;;;5055393;28;20020;-36
2023/10/13 02:39:24;;;;;;;17.15;4.30;;;;;;;;;;5050655;28;20135;-36
2023/10/13 02:41:50;;;;;;;13.50;5.10;;;;;;;;;;5053197;28;20093;-36
2023/10/13 02:44:30;;;;;;;38.13;20.45;;;;;;;;;;5057389;28;20028;-36
2023/10/13 02:46:56;;;;;;;31.52;14.20;;;;;;;;;;5052562;28;20028;-36
2023/10/13 02:49:31;;;;;;;15.60;7.03;;;;;;;;;;5055438;28;20399;-36
2023/10/13 02:51:58;;;;;;;13.65;5.13;;;;;;;;;;5056611;28;20043;-37
2023/10/13 02:54:30;;;;;;;10.50;4.20;;;;;;;;;;5052095;28;20020;-37
2023/10/13 02:57:03;;;;;;;10.50;3.60;;;;;;;;;;5057114;28;20020;-37
2023/10/13 02:59:34;;;;;;;11.48;4.45;;;;;;;;;;5052057;28;20035;-37
2023/10/13 03:02:17;;;;;;;11.20;4.37;;;;;;;;;;5051038;28;20110;-36
2023/10/13 03:04:43;;;;;;;15.77;4.70;;;;;;;;;;5053141;28;20056;-36
2023/10/13 03:07:08;;;;;;;14.82;5.15;;;;;;;;;;5047780;28;20486;-36
2023/10/13 03:09:37;;;;;;;13.70;5.27;;;;;;;;;;5046184;28;20036;-36
2023/10/13 03:12:03;;;;;;;13.43;5.35;;;;;;;;;;5036816;28;20033;-36
2023/10/13 03:14:32;;;;;;;28.08;13.52;;;;;;;;;;5050918;28;20017;-36
2023/10/13 03:17:14;;;;;;;16.48;6.28;;;;;;;;;;5046866;28;20036;-36
2023/10/13 03:19:48;;;;;;;117.10;52.25;;;;;;;;;;5059883;28;20048;-37
2023/10/13 03:22:15;;;;;;;11.18;4.82;;;;;;;;;;5052053;28;20494;-36
2023/10/13 03:24:47;;;;;;;18.27;6.13;;;;;;;;;;5054127;28;20040;-36
2023/10/13 03:27:16;;;;;;;18.63;4.97;;;;;;;;;;5052905;28;20078;-36
2023/10/13 03:29:44;;;;;;;15.43;5.15;;;;;;;;;;5055496;28;20021;-37
2023/10/13 03:32:13;;;;;;;13.98;5.45;;;;;;;;;;5049868;28;20502;-37
2023/10/13 03:34:54;;;;;;;16.17;5.07;;;;;;;;;;5031596;28;20043;-36
2023/10/13 03:37:37;;;;;;;12.45;4.40;;;;;;;;;;5048693;28;20023;-37
2023/10/13 03:40:06;;;;;;;15.00;5.47;;;;;;;;;;5046900;28;20071;-36
2023/10/13 03:42:32;;;;;;;11.13;5.80;;;;;;;;;;5050444;28;20036;-36
2023/10/13 03:44:57;;;;;;;12.90;5.80;;;;;;;;;;5032712;28;20040;-36
2023/10/13 03:47:32;;;;;;;8.93;3.53;;;;;;;;;;5049385;28;20081;-37
2023/10/13 03:50:14;;;;;;;12.48;6.40;;;;;;;;;;5050638;28;20279;-37
2023/10/13 03:52:40;;;;;;;11.02;5.75;;;;;;;;;;5055178;28;20029;-37
2023/10/13 03:55:06;;;;;;;11.13;5.50;;;;;;;;;;5052634;28;20031;-36
2023/10/13 03:57:37;;;;;;;14.38;4.95;;;;;;;;;;5052760;28;20391;-37
2023/10/13 04:00:08;;;;;;;9.27;4.88;;;;;;;;;;5042494;28;20551;-37
2023/10/13 04:02:34;;;;;;;14.90;5.53;;;;;;;;;;5048195;28;20025;-36
2023/10/13 04:05:07;;;;;;;10.80;5.60;;;;;;;;;;5049638;28;20021;-37
2023/10/13 04:15:36;;;;;;;13.20;5.50;;;;;;;;;;5055590;28;20051;-36
2023/10/13 04:18:13;;;;;;;14.00;6.40;;;;;;;;;;5030482;28;20059;-36
2023/10/13 04:20:39;;;;;;;11.77;5.63;;;;;;;;;;5052934;28;20029;-36
2023/10/13 04:23:18;;;;;;;12.15;5.25;;;;;;;;;;5053812;28;20041;-36
2023/10/13 04:41:36;;;;;;;12.73;5.35;;;;;;;;;;5053345;28;20020;-36
2023/10/13 04:44:05;;;;;;;12.80;5.65;;;;;;;;;;5057244;28;20033;-36
2023/10/13 04:46:54;;;;;;;14.50;5.00;;;;;;;;;;5056738;28;20024;-36
2023/10/13 04:49:29;;;;;;;13.68;5.82;;;;;;;;;;5051082;28;20021;-36
2023/10/13 04:52:12;;;;;;;16.40;7.28;;;;;;;;;;5056045;28;20082;-36
2023/10/13 05:03:17;;;;;;;19.52;6.47;;;;;;;;;;5054001;28;20493;-37
2023/10/13 05:05:45;;;;;;;17.33;6.63;;;;;;;;;;5055297;28;20055;-36
2023/10/13 05:51:43;;;;;;;26.05;9.82;;;;;;;;;;5046989;28;20051;-36
2023/10/13 06:29:26;;;;;;;23.55;9.98;;;;;;;;;;5062024;28;20544;-36
2023/10/13 06:31:51;;;;;;;23.85;11.63;;;;;;;;;;5056054;28;20024;-38
2023/10/13 06:34:20;;;;;;;1198.80;400.20;;;;;;;;;;5057494;28;20032;-37
2023/10/13 06:36:47;;;;;;;22.25;10.77;;;;;;;;;;5054652;28;20311;-36
2023/10/13 06:41:56;;;;;;;19.17;8.88;;;;;;;;;;5058491;28;20059;-36
2023/10/13 06:44:22;;;;;;;24.03;10.90;;;;;;;;;;5060831;28;20628;-36
2023/10/13 06:46:49;;;;;;;19.58;10.95;;;;;;;;;;5058351;28;20260;-38
2023/10/13 06:49:15;;;;;;;22.50;10.52;;;;;;;;;;5058096;28;21195;-36
2023/10/13 06:51:40;;;;;;;22.02;10.77;;;;;;;;;;5057886;28;20028;-36
2023/10/13 06:54:11;;;;;;;24.63;12.60;;;;;;;;;;5053528;28;20036;-36
2023/10/13 06:56:39;;;;;;;31.45;14.70;;;;;;;;;;5057523;28;20029;-36
2023/10/13 06:59:06;;;;;;;25.55;11.65;;;;;;;;;;5059244;28;20090;-36
2023/10/13 07:01:38;;;;;;;24.48;11.43;;;;;;;;;;5055002;28;20517;-36
2023/10/13 07:04:03;;;;;;;;;;;;;;;;;;5044374;28;20131;-36
2023/10/13 07:06:31;;;;;;;24.47;11.63;;;;;;;;;;5050854;28;19991;-36
2023/10/13 07:08:57;;;;;;;23.65;11.02;;;;;;;;;;5045094;28;20112;-37
2023/10/13 07:11:37;;;;;;;24.30;13.35;;;;;;;;;;5056698;28;20107;-36
2023/10/13 07:14:16;;;;;;;21.60;10.43;;;;;;;;;;5058712;28;20025;-36
2023/10/13 07:17:00;;;;;;;28.67;12.20;;;;;;;;;;5053908;28;20103;-36
2023/10/13 07:19:29;;;;;;;24.00;11.55;;;;;;;;;;5059771;28;20025;-36
2023/10/13 07:21:58;;;;;;;26.70;12.68;;;;;;;;;;5047377;28;20077;-36
2023/10/13 07:24:24;;;;;;;23.02;12.20;;;;;;;;;;5061338;28;20025;-36
2023/10/13 07:26:57;;;;;;;18.83;7.90;;;;;;;;;;5062099;28;20099;-36
2023/10/13 07:29:24;;;;;;;24.05;12.02;;;;;;;;;;5051224;28;20039;-36
2023/10/13 07:31:50;;;;;;;93.65;40.28;;;;;;;;;;5054437;28;20066;-36
2023/10/13 07:34:26;;;;;;;5.70;0.35;;;;;;;;;;5050878;28;20032;-36
2023/10/13 07:36:52;;;;;;;392.23;128.93;;;;;;;;;;5056625;28;20024;-36
2023/10/13 07:39:28;;;;;;;986.10;379.83;;;;;;;;;;5055471;28;20036;-37
2023/10/13 07:42:03;;;;;;;13.82;4.38;;;;;;;;;;5061441;28;20017;-36
2023/10/13 07:44:31;;;;;;;26.25;13.43;;;;;;;;;;5058475;28;20031;-36
2023/10/13 07:47:02;;;;;;;33.22;15.32;;;;;;;;;;5057257;28;20020;-36
2023/10/13 07:49:32;;;;;;;31.02;14.45;;;;;;;;;;5055337;28;20036;-36
2023/10/13 07:52:14;;;;;;;34.30;16.23;;;;;;;;;;5056291;28;20502;-35
2023/10/13 07:54:43;;;;;;;21.50;8.95;;;;;;;;;;5056555;28;20136;-37
2023/10/13 07:57:08;;;;;;;30.50;15.70;;;;;;;;;;5057766;28;20116;-36
2023/10/13 07:59:36;;;;;;;35.60;15.25;;;;;;;;;;5058162;28;20131;-36
2023/10/13 08:02:15;;;;;;;29.05;15.23;;;;;;;;;;5054025;28;20021;-37
2023/10/13 08:04:40;;;;;;;28.08;14.80;;;;;;;;;;5057100;28;20044;-36
2023/10/13 08:07:14;;;;;;;27.63;15.40;;;;;;;;;;5060194;28;20028;-36
2023/10/13 08:09:40;;;;;;;30.73;15.10;;;;;;;;;;5056005;28;20358;-37
2023/10/13 08:12:10;;;;;;;35.60;16.88;;;;;;;;;;5054323;28;20132;-36
2023/10/13 08:14:38;;;;;;;28.15;14.15;;;;;;;;;;5057514;28;20035;-36
2023/10/13 08:17:07;;;;;;;27.13;14.77;;;;;;;;;;5055577;28;20055;-36
2023/10/13 08:19:44;;;;;;;291.55;102.32;;;;;;;;;;5058717;28;20039;-36
2023/10/13 08:32:36;;;;;;;25.80;13.05;;;;;;;;;;5056785;28;20361;-36
2023/10/13 08:37:34;;;;;;;26.13;12.77;;;;;;;;;;5055205;28;20025;-37
2023/10/13 08:48:07;;;;;;;26.45;13.43;;;;;;;;;;5055285;28;20554;-36
2023/10/13 09:07:15;;;;;;;15.18;9.63;;;;;;;;;;5043565;28;20013;-36
2023/10/13 09:13:00;;;;;;;19.08;10.15;;;;;;;;;;5056044;28;20383;-36
2023/10/13 09:17:41;;;;;;;10.05;5.72;;;;;;;;;;5059450;28;20088;-36
2023/10/13 09:25:34;;;;;;;16.67;9.38;;;;;;;;;;5052611;28;20056;-36
2023/10/13 09:28:00;;;;;;;;;;;;;;;;;;5042323;28;20116;-36
2023/10/13 09:30:28;;;;;;;13.82;8.98;;;;;;;;;;5064083;28;19916;-37
2023/10/13 09:33:01;;;;;;;15.48;8.70;;;;;;;;;;5060684;28;20019;-36
2023/10/13 09:35:27;;;;;;;13.43;8.20;;;;;;;;;;5054095;28;20033;-37
2023/10/13 09:37:56;;;;;;;19.38;9.20;;;;;;;;;;5057417;28;20060;-36
2023/10/13 09:40:46;;;;;;;13.25;8.10;;;;;;;;;;5060612;28;20041;-36
2023/10/13 09:43:15;;;;;;;13.55;7.82;;;;;;;;;;5064060;28;20029;-36
2023/10/13 09:45:56;;;;;;;16.15;8.27;;;;;;;;;;5058837;28;20047;-36
2023/10/13 09:48:28;;;;;;;14.75;7.38;;;;;;;;;;5061075;28;20471;-36
2023/10/13 09:50:53;;;;;;;;;;;;;;;;;;5064583;28;20028;-36
2023/10/13 09:53:19;;;;;;;17.83;8.35;;;;;;;;;;5060223;28;19918;-36
2023/10/13 09:55:48;;;;;;;13.02;7.35;;;;;;;;;;5059683;28;20123;-36
2023/10/13 09:58:14;;;;;;;9.27;6.45;;;;;;;;;;5055340;28;20061;-36
2023/10/13 10:00:47;;;;;;;13.57;6.57;;;;;;;;;;5054880;28;20506;-37
2023/10/13 10:03:15;;;;;;;12.20;6.30;;;;;;;;;;5056234;28;20043;-36
2023/10/13 10:05:49;;;;;;;11.65;6.18;;;;;;;;;;5052544;28;20557;-36
2023/10/13 10:08:23;;;;;;;11.63;6.65;;;;;;;;;;5056609;28;20028;-36
2023/10/13 10:10:56;;;;;;;12.60;6.43;;;;;;;;;;5057307;28;20048;-37
2023/10/13 10:13:30;;;;;;;13.00;7.00;;;;;;;;;;5057528;28;20103;-36
2023/10/13 10:15:58;;;;;;;12.98;7.50;;;;;;;;;;5061671;28;20071;-36
2023/10/13 10:18:25;;;;;;;31.88;9.02;;;;;;;;;;5057630;28;20025;-36
2023/10/13 10:20:55;;;;;;;11.63;7.38;;;;;;;;;;5058784;28;20115;-37
2023/10/13 10:23:24;;;;;;;16.75;6.10;;;;;;;;;;5056424;28;20032;-36
2023/10/13 10:25:51;;;;;;;11.48;5.70;;;;;;;;;;5059720;28;20024;-37
2023/10/13 10:28:17;;;;;;;12.00;6.78;;;;;;;;;;5057171;28;20123;-36
2023/10/13 10:30:43;;;;;;;11.02;6.75;;;;;;;;;;5062403;28;20039;-36
2023/10/13 10:33:13;;;;;;;14.52;6.00;;;;;;;;;;5057475;28;20039;-36
2023/10/13 10:35:42;;;;;;;8.02;5.35;;;;;;;;;;5060026;28;20027;-36
2023/10/13 10:38:24;;;;;;;12.27;6.10;;;;;;;;;;5055464;28;20020;-36
2023/10/13 10:41:01;;;;;;;12.18;5.60;;;;;;;;;;5060690;28;20020;-36
2023/10/13 10:43:41;;;;;;;12.57;5.68;;;;;;;;;;5058883;28;20016;-36
2023/10/13 10:46:07;;;;;;;12.75;6.32;;;;;;;;;;5060136;28;20033;-36
2023/10/13 10:48:34;;;;;;;12.05;5.22;;;;;;;;;;5058499;28;20035;-36
2023/10/13 10:51:06;;;;;;;9.85;6.35;;;;;;;;;;5060342;28;20036;-36
2023/10/13 10:53:33;;;;;;;11.98;5.68;;;;;;;;;;5053864;28;20025;-36
2023/10/13 10:56:19;;;;;;;10.80;5.55;;;;;;;;;;5058162;28;20055;-36
2023/10/13 10:58:45;;;;;;;8.82;5.53;;;;;;;;;;5052805;28;20029;-36
2023/10/13 11:01:10;;;;;;;14.00;7.18;;;;;;;;;;5059961;28;20073;-36
2023/10/13 11:03:38;;;;;;;11.20;4.90;;;;;;;;;;5056696;28;20039;-36
2023/10/13 11:06:14;;;;;;;9.73;5.45;;;;;;;;;;5056281;28;20123;-36
2023/10/13 11:08:41;;;;;;;11.00;6.40;;;;;;;;;;5056071;28;20059;-36
2023/10/13 11:11:17;;;;;;;11.82;6.50;;;;;;;;;;5059571;28;20028;-36
2023/10/13 11:13:54;;;;;;;14.90;5.93;;;;;;;;;;5038202;28;20020;-36
2023/10/13 11:16:27;;;;;;;11.55;5.63;;;;;;;;;;5055508;28;20060;-36
2023/10/13 11:19:05;;;;;;;13.52;6.65;;;;;;;;;;5059350;28;20029;-36
2023/10/13 11:21:31;;;;;;;13.00;5.53;;;;;;;;;;5051606;28;20020;-36
2023/10/13 11:24:08;;;;;;;13.90;5.88;;;;;;;;;;5049138;28;20082;-36
2023/10/13 11:26:57;;;;;;;7.10;4.00;;;;;;;;;;5058806;28;20108;-36
2023/10/13 11:29:31;;;;;;;9.73;6.22;;;;;;;;;;5056569;28;20029;-37
2023/10/13 11:32:00;;;;;;;13.75;6.35;;;;;;;;;;5054923;28;20017;-36
2023/10/13 11:34:25;;;;;;;13.73;6.30;;;;;;;;;;5053550;28;20032;-36
2023/10/13 11:36:51;;;;;;;13.98;6.70;;;;;;;;;;5057716;28;20035;-37
2023/10/13 11:39:24;;;;;;;10.13;5.85;;;;;;;;;;5058474;28;20052;-36
2023/10/13 11:41:56;;;;;;;13.55;6.00;;;;;;;;;;5055155;28;20059;-37
2023/10/13 11:44:26;;;;;;;11.43;6.03;;;;;;;;;;5049844;28;20486;-37
2023/10/13 11:47:16;;;;;;;10.55;6.30;;;;;;;;;;5054454;28;20025;-37
2023/10/13 11:49:41;;;;;;;11.43;5.32;;;;;;;;;;5058760;28;20025;-36
2023/10/13 11:52:16;;;;;;;9.27;5.82;;;;;;;;;;5060368;28;20083;-37
2023/10/13 11:54:41;;;;;;;10.73;6.28;;;;;;;;;;5053551;28;20082;-37
2023/10/13 11:57:07;;;;;;;10.88;5.88;;;;;;;;;;5057680;28;20036;-37
2023/10/13 11:59:36;;;;;;;10.82;6.22;;;;;;;;;;5056734;28;20027;-37
2023/10/13 12:04:43;;;;;;;11.82;6.15;;;;;;;;;;5054692;28;20462;-36
2023/10/13 12:12:25;;;;;;;9.98;5.57;;;;;;;;;;5050599;28;20036;-36
2023/10/13 12:14:55;;;;;;;8.30;5.50;;;;;;;;;;5056569;28;20221;-36
2023/10/13 12:17:39;;;;;;;12.35;5.43;;;;;;;;;;5055512;28;20049;-36
2023/10/13 12:20:09;;;;;;;10.52;5.78;;;;;;;;;;5056323;28;20021;-37
2023/10/13 12:22:42;;;;;;;10.50;6.25;;;;;;;;;;5055910;28;20087;-37
2023/10/13 12:27:56;;;;;;;13.63;6.35;;;;;;;;;;5052422;28;20505;-37
2023/10/13 12:30:35;;;;;;;12.02;6.43;;;;;;;;;;5056786;28;20028;-37
2023/10/13 12:33:08;;;;;;;15.68;5.90;;;;;;;;;;5057648;28;20090;-37
2023/10/13 12:49:58;;;;;;;13.77;6.07;;;;;;;;;;5052531;28;20055;-37
2023/10/13 12:52:25;;;;;;;8.68;3.35;;;;;;;;;;5051647;28;20173;-36
2023/10/13 12:57:23;;;;;;;12.35;5.78;;;;;;;;;;5049445;28;20013;-37
2023/10/13 12:59:48;;;;;;;10.63;5.63;;;;;;;;;;5047350;28;20044;-36
2023/10/13 13:02:16;;;;;;;27.40;7.03;;;;;;;;;;5053294;28;20029;-36
2023/10/13 13:04:44;;;;;;;10.23;5.45;;;;;;;;;;5062723;28;20025;-37
2023/10/13 13:07:13;;;;;;;11.55;6.15;;;;;;;;;;5061430;28;20036;-36
2023/10/13 13:09:39;;;;;;;13.15;6.65;;;;;;;;;;5064364;28;20028;-36
2023/10/13 13:12:06;;;;;;;12.40;5.95;;;;;;;;;;5059800;28;20262;-36
2023/10/13 13:14:34;;;;;;;11.95;5.50;;;;;;;;;;5062099;28;20032;-36
2023/10/13 13:17:05;;;;;;;10.23;6.18;;;;;;;;;;5061925;28;20017;-37
2023/10/13 13:19:39;;;;;;;9.93;5.40;;;;;;;;;;5060112;28;20021;-37
2023/10/13 13:22:05;;;;;;;14.52;6.57;;;;;;;;;;5062921;28;20028;-36
2023/10/13 13:24:30;;;;;;;12.23;6.13;;;;;;;;;;5061114;28;20074;-36
2023/10/13 13:26:56;;;;;;;10.57;5.93;;;;;;;;;;5054296;28;20024;-36
2023/10/13 13:29:21;;;;;;;9.98;5.32;;;;;;;;;;5054842;28;20037;-36
2023/10/13 13:31:46;;;;;;;10.70;5.30;;;;;;;;;;5062373;28;20016;-36
2023/10/13 13:34:14;;;;;;;13.38;5.72;;;;;;;;;;5055287;28;20036;-36
2023/10/13 13:36:44;;;;;;;8.65;5.43;;;;;;;;;;5056755;28;20033;-37
2023/10/13 13:39:17;;;;;;;13.45;6.20;;;;;;;;;;5057236;28;20641;-36
2023/10/13 13:41:43;;;;;;;12.05;6.00;;;;;;;;;;5058834;28;20994;-36
2023/10/13 13:44:15;;;;;;;13.43;6.28;;;;;;;;;;5060409;28;20117;-36
2023/10/13 13:46:43;;;;;;;10.73;5.90;;;;;;;;;;5061637;28;20497;-36
2023/10/13 13:49:17;;;;;;;14.18;6.28;;;;;;;;;;5063496;28;20040;-36
2023/10/13 13:51:43;;;;;;;9.23;4.97;;;;;;;;;;5048646;28;21204;-36
2023/10/13 13:54:08;;;;;;;12.65;5.97;;;;;;;;;;5057802;28;20403;-36
2023/10/13 13:56:38;;;;;;;12.80;5.80;;;;;;;;;;5057272;28;20132;-36
2023/10/13 13:59:08;;;;;;;12.50;5.55;;;;;;;;;;5057519;28;20025;-36
2023/10/13 14:01:37;;;;;;;9.45;5.97;;;;;;;;;;5063596;28;20028;-36
2023/10/13 14:04:02;;;;;;;11.25;5.50;;;;;;;;;;5080388;22;20048;-39
2023/10/13 14:06:28;;;;;;;13.85;5.47;;;;;;;;;;5064705;28;20049;-40
2023/10/13 14:08:59;;;;;;;10.20;4.65;;;;;;;;;;5061291;28;20075;-39
2023/10/13 14:14:11;;;;;;;9.63;5.35;;;;;;;;;;5050104;28;20029;-40
2023/10/13 14:16:49;;;;;;;15.68;6.13;;;;;;;;;;5039842;28;20151;-40
2023/10/13 14:19:26;;;;;;;9.75;5.13;;;;;;;;;;5047085;28;20034;-40
2023/10/13 14:21:53;;;;;;;10.55;5.22;;;;;;;;;;5049407;28;20032;-39
2023/10/13 14:24:20;;;;;;;12.65;5.60;;;;;;;;;;5048878;28;20119;-40
2023/10/13 14:26:47;;;;;;;11.40;5.38;;;;;;;;;;5040303;28;20059;-40
2023/10/13 14:29:15;;;;;;;15.67;6.53;;;;;;;;;;5044188;28;20433;-39
2023/10/13 14:31:41;;;;;;;13.48;6.15;;;;;;;;;;5044856;28;20021;-37
2023/10/13 14:34:07;;;;;;;13.07;5.03;;;;;;;;;;5044882;28;20099;-37
2023/10/13 14:36:35;;;;;;;14.45;5.40;;;;;;;;;;5045856;28;20025;-37
2023/10/13 14:39:01;;;;;;;16.48;7.38;;;;;;;;;;5046948;28;20392;-37
2023/10/13 14:41:26;;;;;;;11.25;5.43;;;;;;;;;;5039567;28;20002;-37
2023/10/13 14:43:51;;;;;;;21.35;6.45;;;;;;;;;;5039800;28;20040;-38
2023/10/13 14:46:22;;;;;;;10.88;5.15;;;;;;;;;;5046941;28;20037;-37
2023/10/13 14:48:48;;;;;;;8.82;3.78;;;;;;;;;;5041297;28;20025;-38
2023/10/13 14:51:14;;;;;;;8.02;4.70;;;;;;;;;;5044578;28;20025;-38
2023/10/13 14:53:43;;;;;;;13.07;5.57;;;;;;;;;;5042580;28;20091;-38
2023/10/13 14:56:17;;;;;;;12.50;4.95;;;;;;;;;;5048462;28;20445;-37
2023/10/13 14:58:43;;;;;;;12.88;5.68;;;;;;;;;;5042633;28;20013;-37
2023/10/13 15:01:16;;;;;;;11.02;5.07;;;;;;;;;;5044113;28;20048;-37
2023/10/13 15:03:44;;;;;;;8.57;5.15;;;;;;;;;;5044590;28;20112;-37
2023/10/13 15:06:17;;;;;;;10.20;4.32;;;;;;;;;;5044554;28;20040;-37
2023/10/13 15:08:45;;;;;;;10.80;5.30;;;;;;;;;;5034869;28;20017;-38
2023/10/13 15:11:12;;;;;;;9.68;4.60;;;;;;;;;;5047857;28;20033;-39
2023/10/13 15:13:38;;;;;;;15.18;4.65;;;;;;;;;;5038431;28;20040;-38
2023/10/13 15:16:13;;;;;;;9.13;4.68;;;;;;;;;;5038005;28;20052;-37
2023/10/13 15:18:39;;;;;;;11.63;5.60;;;;;;;;;;5042743;28;20102;-39
2023/10/13 15:21:08;;;;;;;23.50;6.22;;;;;;;;;;5046747;28;20039;-38
2023/10/13 15:23:42;;;;;;;21.52;8.20;;;;;;;;;;5039525;28;20017;-38
2023/10/13 15:26:09;;;;;;;10.88;4.32;;;;;;;;;;5037931;28;20072;-39
2023/10/13 15:28:37;;;;;;;8.60;5.13;;;;;;;;;;5038398;28;20434;-38
2023/10/13 15:31:10;;;;;;;10.43;5.15;;;;;;;;;;5045492;28;20029;-37
2023/10/13 15:33:35;;;;;;;11.15;5.38;;;;;;;;;;5040028;28;20522;-38
2023/10/13 15:36:00;;;;;;;11.68;5.00;;;;;;;;;;5035990;28;20057;-37
2023/10/13 15:38:28;;;;;;;17.43;5.73;;;;;;;;;;5041043;28;20102;-37
2023/10/13 15:40:54;;;;;;;15.45;5.97;;;;;;;;;;5042482;28;20350;-37
2023/10/13 15:43:20;;;;;;;10.30;5.28;;;;;;;;;;5039710;28;20083;-37
2023/10/13 15:45:46;;;;;;;13.52;5.05;;;;;;;;;;5039633;28;20040;-37
2023/10/13 15:48:12;;;;;;;15.02;5.38;;;;;;;;;;5041352;28;20028;-38
2023/10/13 15:50:40;;;;;;;15.05;5.50;;;;;;;;;;5039938;28;20021;-38
2023/10/13 15:53:06;;;;;;;10.50;5.32;;;;;;;;;;5041126;28;20056;-38
2023/10/13 15:55:36;;;;;;;13.15;5.18;;;;;;;;;;5042079;28;20670;-37
2023/10/13 15:58:01;;;;;;;13.57;6.30;;;;;;;;;;5040338;28;20025;-38
2023/10/13 16:00:27;;;;;;;12.93;5.30;;;;;;;;;;5039901;28;20098;-38
2023/10/13 16:02:54;;;;;;;16.17;5.53;;;;;;;;;;5043529;28;20360;-38
2023/10/13 16:05:22;;;;;;;15.68;6.38;;;;;;;;;;5039709;28;20506;-38
2023/10/13 16:07:47;;;;;;;16.23;5.13;;;;;;;;;;5042327;28;20024;-38
2023/10/13 16:10:13;;;;;;;10.83;3.73;;;;;;;;;;5046105;28;20039;-38
2023/10/13 16:12:38;;;;;;;19.33;5.70;;;;;;;;;;5050447;28;20266;-38
2023/10/13 16:15:08;;;;;;;17.07;4.73;;;;;;;;;;5041860;28;20032;-38
2023/10/13 16:17:33;;;;;;;17.58;6.93;;;;;;;;;;5045760;28;20521;-37
2023/10/13 16:19:58;;;;;;;10.40;4.90;;;;;;;;;;5041811;28;20048;-38
2023/10/13 16:22:23;;;;;;;12.27;5.43;;;;;;;;;;5045553;28;20021;-38
2023/10/13 16:24:49;;;;;;;16.03;5.10;;;;;;;;;;5043117;28;20274;-38
2023/10/13 16:27:14;;;;;;;14.53;5.50;;;;;;;;;;5051444;28;20266;-38
2023/10/13 16:29:42;;;;;;;13.43;6.13;;;;;;;;;;5048557;28;20392;-38
2023/10/13 16:32:08;;;;;;;12.95;4.88;;;;;;;;;;5035637;28;20052;-38
2023/10/13 16:34:34;;;;;;;18.35;5.70;;;;;;;;;;5044314;28;20501;-37
2023/10/13 16:37:04;;;;;;;10.35;5.32;;;;;;;;;;5038532;28;20136;-38
2023/10/13 16:39:30;;;;;;;12.18;5.82;;;;;;;;;;5048031;28;20441;-38
2023/10/13 16:41:55;;;;;;;18.35;5.43;;;;;;;;;;5043699;28;20033;-38
2023/10/13 16:44:27;;;;;;;11.07;4.80;;;;;;;;;;5047399;28;20025;-38
2023/10/13 16:46:56;;;;;;;12.80;6.03;;;;;;;;;;5048560;28;20255;-38
2023/10/13 16:49:22;;;;;;;15.32;4.63;;;;;;;;;;5044133;28;20020;-38
2023/10/13 16:51:47;;;;;;;7.45;2.75;;;;;;;;;;5046732;28;20025;-38
2023/10/13 16:54:12;;;;;;;17.63;5.57;;;;;;;;;;5048746;28;20027;-38
2023/10/13 16:56:38;;;;;;;15.23;5.53;;;;;;;;;;5037848;28;20408;-38
2023/10/13 16:59:07;;;;;;;15.20;5.43;;;;;;;;;;5043686;28;20259;-38
2023/10/13 17:01:32;;;;;;;12.98;4.97;;;;;;;;;;5051077;28;20013;-38
2023/10/13 17:03:58;;;;;;;14.00;5.30;;;;;;;;;;5046962;28;20793;-37
2023/10/13 17:06:23;;;;;;;13.03;5.87;;;;;;;;;;5041958;28;20522;-38
2023/10/13 17:08:48;;;;;;;15.27;5.17;;;;;;;;;;5046456;28;20255;-38
2023/10/13 17:11:14;;;;;;;12.43;5.57;;;;;;;;;;5049215;28;20501;-38
2023/10/13 17:13:41;;;;;;;17.33;5.88;;;;;;;;;;5051675;28;20259;-38
2023/10/13 17:16:25;;;;;;;11.98;5.38;;;;;;;;;;5048537;28;20032;-38
2023/10/13 17:18:50;;;;;;;9.25;3.90;;;;;;;;;;5044540;28;20116;-38
2023/10/13 17:21:27;;;;;;;16.13;5.85;;;;;;;;;;5045955;28;20100;-38
2023/10/13 17:23:53;;;;;;;12.07;4.57;;;;;;;;;;5047301;28;20021;-38
2023/10/13 17:26:19;;;;;;;18.20;4.95;;;;;;;;;;5036954;28;20027;-38
2023/10/13 17:28:44;;;;;;;15.38;5.60;;;;;;;;;;5044274;28;20045;-38
2023/10/13 17:31:10;;;;;;;17.48;5.68;;;;;;;;;;5046943;28;20021;-38
2023/10/13 17:33:41;;;;;;;10.90;4.50;;;;;;;;;;5045578;28;20159;-43
2023/10/13 17:36:06;;;;;;;17.95;5.32;;;;;;;;;;5040326;28;20482;-38
2023/10/13 17:38:32;;;;;;;30.67;11.70;;;;;;;;;;5041602;28;20123;-38
2023/10/13 17:40:59;;;;;;;15.23;4.45;;;;;;;;;;5041905;28;20033;-39
2023/10/13 17:43:24;;;;;;;12.60;5.22;;;;;;;;;;5040503;28;20029;-38
2023/10/13 17:45:50;;;;;;;14.15;5.70;;;;;;;;;;5045338;28;20028;-37
2023/10/13 17:48:15;;;;;;;10.97;4.40;;;;;;;;;;5043306;28;20021;-38
2023/10/13 17:50:42;;;;;;;14.18;4.85;;;;;;;;;;5046113;28;20623;-38
2023/10/13 17:53:07;;;;;;;8.60;4.40;;;;;;;;;;5040492;28;20021;-38
2023/10/13 17:55:32;;;;;;;12.90;5.07;;;;;;;;;;5040318;28;20267;-37
2023/10/13 17:57:58;;;;;;;12.55;6.18;;;;;;;;;;5045926;28;20267;-38